sensor_id;sensor_type;location;lat;lon;timestamp;temperature;humidity
13892;DHT22;7016;48.172;8.058;2022-08-19T00:01:15;19.60;99.90
13892;DHT22;7016;48.172;8.058;2022-08-19T00:03:41;19.50;99.90
13892;DHT22;7016;48.172;8.058;2022-08-19T00:06:07;19.50;99.90
13892;DHT22;7016;48.172;8.058;2022-08-19T00:08:33;19.50;99.90
13892;DHT22;7016;48.172;8.058;2022-08-19T00:10:59;19.50;99.90
13892;DHT22;7016;48.172;8.058;2022-08-19T00:13:25;19.50;99.90
13892;DHT22;7016;48.172;8.058;2022-08-19T00:15:50;19.50;99.90
13892;DHT22;7016;48.172;8.058;2022-08-19T00:18:17;19.60;99.90
13892;DHT22;7016;48.172;8.058;2022-08-19T00:20:42;19.60;99.90
13892;DHT22;7016;48.172;8.058;2022-08-19T00:23:08;19.50;99.90
13892;DHT22;7016;48.172;8.058;2022-08-19T00:25:34;19.60;99.90
13892;DHT22;7016;48.172;8.058;2022-08-19T00:28:02;19.50;99.90
13892;DHT22;7016;48.172;8.058;2022-08-19T00:30:28;19.50;99.90
13892;DHT22;7016;48.172;8.058;2022-08-19T00:32:54;19.60;99.90
13892;DHT22;7016;48.172;8.058;2022-08-19T00:35:21;19.60;99.90
13892;DHT22;7016;48.172;8.058;2022-08-19T00:37:48;19.50;99.90
13892;DHT22;7016;48.172;8.058;2022-08-19T00:40:15;19.50;99.90
13892;DHT22;7016;48.172;8.058;2022-08-19T00:42:41;19.50;99.90
13892;DHT22;7016;48.172;8.058;2022-08-19T00:45:28;19.40;99.90
13892;DHT22;7016;48.172;8.058;2022-08-19T00:47:56;19.30;99.90
13892;DHT22;7016;48.172;8.058;2022-08-19T00:50:22;19.40;99.90
13892;DHT22;7016;48.172;8.058;2022-08-19T00:52:50;19.40;99.90
13892;DHT22;7016;48.172;8.058;2022-08-19T00:55:21;19.40;99.90
13892;DHT22;7016;48.172;8.058;2022-08-19T00:57:56;19.40;99.90
13892;DHT22;7016;48.172;8.058;2022-08-19T01:00:24;19.40;99.90
13892;DHT22;7016;48.172;8.058;2022-08-19T01:02:52;19.40;99.90
13892;DHT22;7016;48.172;8.058;2022-08-19T01:05:23;19.40;99.90
13892;DHT22;7016;48.172;8.058;2022-08-19T01:07:49;19.40;99.90
13892;DHT22;7016;48.172;8.058;2022-08-19T01:10:20;19.40;99.90
13892;DHT22;7016;48.172;8.058;2022-08-19T01:12:47;19.40;99.90
13892;DHT22;7016;48.172;8.058;2022-08-19T01:15:18;19.50;99.90
13892;DHT22;7016;48.172;8.058;2022-08-19T01:17:45;19.50;99.90
13892;DHT22;7016;48.172;8.058;2022-08-19T01:20:15;19.50;99.90
13892;DHT22;7016;48.172;8.058;2022-08-19T01:22:48;19.50;99.90
13892;DHT22;7016;48.172;8.058;2022-08-19T01:25:16;19.50;99.90
13892;DHT22;7016;48.172;8.058;2022-08-19T01:27:45;19.50;99.90
13892;DHT22;7016;48.172;8.058;2022-08-19T01:30:19;19.40;99.90
13892;DHT22;7016;48.172;8.058;2022-08-19T01:32:46;19.40;99.90
13892;DHT22;7016;48.172;8.058;2022-08-19T01:35:12;19.40;99.90
13892;DHT22;7016;48.172;8.058;2022-08-19T01:37:46;19.40;99.90
13892;DHT22;7016;48.172;8.058;2022-08-19T01:40:13;19.40;99.90
13892;DHT22;7016;48.172;8.058;2022-08-19T01:42:39;19.40;99.90
13892;DHT22;7016;48.172;8.058;2022-08-19T01:45:08;19.40;99.90
13892;DHT22;7016;48.172;8.058;2022-08-19T01:47:36;19.40;99.90
13892;DHT22;7016;48.172;8.058;2022-08-19T01:50:04;19.40;99.90
13892;DHT22;7016;48.172;8.058;2022-08-19T01:52:30;19.40;99.90
13892;DHT22;7016;48.172;8.058;2022-08-19T01:54:55;19.30;99.90
13892;DHT22;7016;48.172;8.058;2022-08-19T01:57:21;19.40;99.90
13892;DHT22;7016;48.172;8.058;2022-08-19T01:59:47;19.40;99.90
13892;DHT22;7016;48.172;8.058;2022-08-19T02:02:13;19.30;99.90
13892;DHT22;7016;48.172;8.058;2022-08-19T02:04:39;19.30;99.90
13892;DHT22;7016;48.172;8.058;2022-08-19T02:07:06;19.30;99.90
13892;DHT22;7016;48.172;8.058;2022-08-19T02:09:33;19.30;99.90
13892;DHT22;7016;48.172;8.058;2022-08-19T02:11:59;19.20;99.90
13892;DHT22;7016;48.172;8.058;2022-08-19T02:14:25;19.20;99.90
13892;DHT22;7016;48.172;8.058;2022-08-19T02:16:51;19.20;99.90
13892;DHT22;7016;48.172;8.058;2022-08-19T02:19:16;19.20;99.90
13892;DHT22;7016;48.172;8.058;2022-08-19T02:21:42;19.10;99.90
13892;DHT22;7016;48.172;8.058;2022-08-19T02:24:09;19.10;99.90
13892;DHT22;7016;48.172;8.058;2022-08-19T02:26:35;19.00;99.90
13892;DHT22;7016;48.172;8.058;2022-08-19T02:29:00;19.00;99.90
13892;DHT22;7016;48.172;8.058;2022-08-19T02:31:26;19.20;99.90
13892;DHT22;7016;48.172;8.058;2022-08-19T02:33:54;19.20;99.90
13892;DHT22;7016;48.172;8.058;2022-08-19T02:36:21;19.10;99.90
13892;DHT22;7016;48.172;8.058;2022-08-19T02:38:47;19.10;99.90
13892;DHT22;7016;48.172;8.058;2022-08-19T02:41:20;19.10;99.90
13892;DHT22;7016;48.172;8.058;2022-08-19T02:43:46;19.10;99.90
13892;DHT22;7016;48.172;8.058;2022-08-19T02:46:18;19.10;99.90
13892;DHT22;7016;48.172;8.058;2022-08-19T02:48:48;19.20;99.90
13892;DHT22;7016;48.172;8.058;2022-08-19T02:51:26;19.20;99.90
13892;DHT22;7016;48.172;8.058;2022-08-19T02:53:52;19.20;99.90
13892;DHT22;7016;48.172;8.058;2022-08-19T02:56:19;19.20;99.90
13892;DHT22;7016;48.172;8.058;2022-08-19T02:58:45;19.20;99.90
13892;DHT22;7016;48.172;8.058;2022-08-19T03:01:18;19.20;99.90
13892;DHT22;7016;48.172;8.058;2022-08-19T03:03:44;19.20;99.90
13892;DHT22;7016;48.172;8.058;2022-08-19T03:06:14;19.20;99.90
13892;DHT22;7016;48.172;8.058;2022-08-19T03:08:42;19.20;99.90
13892;DHT22;7016;48.172;8.058;2022-08-19T03:11:20;19.20;99.90
13892;DHT22;7016;48.172;8.058;2022-08-19T03:13:47;19.20;99.90
13892;DHT22;7016;48.172;8.058;2022-08-19T03:16:15;19.30;99.90
13892;DHT22;7016;48.172;8.058;2022-08-19T03:18:41;19.30;99.90
13892;DHT22;7016;48.172;8.058;2022-08-19T03:21:07;19.10;99.90
13892;DHT22;7016;48.172;8.058;2022-08-19T03:23:34;19.10;99.90
13892;DHT22;7016;48.172;8.058;2022-08-19T03:26:04;19.10;99.90
13892;DHT22;7016;48.172;8.058;2022-08-19T03:28:31;19.00;99.90
13892;DHT22;7016;48.172;8.058;2022-08-19T03:31:03;19.00;99.90
13892;DHT22;7016;48.172;8.058;2022-08-19T03:33:30;19.00;99.90
13892;DHT22;7016;48.172;8.058;2022-08-19T03:36:21;19.10;99.90
13892;DHT22;7016;48.172;8.058;2022-08-19T03:38:53;19.20;99.90
13892;DHT22;7016;48.172;8.058;2022-08-19T03:41:25;19.20;99.90
13892;DHT22;7016;48.172;8.058;2022-08-19T03:43:52;19.20;99.90
13892;DHT22;7016;48.172;8.058;2022-08-19T03:46:27;19.20;99.90
13892;DHT22;7016;48.172;8.058;2022-08-19T03:48:55;19.20;99.90
13892;DHT22;7016;48.172;8.058;2022-08-19T03:51:22;19.20;99.90
13892;DHT22;7016;48.172;8.058;2022-08-19T03:53:48;19.20;99.90
13892;DHT22;7016;48.172;8.058;2022-08-19T03:56:14;19.20;99.90
13892;DHT22;7016;48.172;8.058;2022-08-19T03:58:41;19.20;99.90
13892;DHT22;7016;48.172;8.058;2022-08-19T04:01:12;19.20;99.90
13892;DHT22;7016;48.172;8.058;2022-08-19T04:03:39;19.20;99.90
13892;DHT22;7016;48.172;8.058;2022-08-19T04:08:39;19.30;99.90
13892;DHT22;7016;48.172;8.058;2022-08-19T04:11:11;19.30;99.90
13892;DHT22;7016;48.172;8.058;2022-08-19T04:13:37;19.30;99.90
13892;DHT22;7016;48.172;8.058;2022-08-19T04:16:04;19.30;99.90
13892;DHT22;7016;48.172;8.058;2022-08-19T04:18:30;19.30;99.90
13892;DHT22;7016;48.172;8.058;2022-08-19T04:20:56;19.30;99.90
13892;DHT22;7016;48.172;8.058;2022-08-19T04:23:22;19.30;99.90
13892;DHT22;7016;48.172;8.058;2022-08-19T04:25:48;19.40;99.90
13892;DHT22;7016;48.172;8.058;2022-08-19T04:28:17;19.30;99.90
13892;DHT22;7016;48.172;8.058;2022-08-19T04:30:46;19.40;99.90
13892;DHT22;7016;48.172;8.058;2022-08-19T04:33:14;19.30;99.90
13892;DHT22;7016;48.172;8.058;2022-08-19T04:35:43;19.30;99.90
13892;DHT22;7016;48.172;8.058;2022-08-19T04:38:11;19.30;99.90
13892;DHT22;7016;48.172;8.058;2022-08-19T04:40:47;19.30;99.90
13892;DHT22;7016;48.172;8.058;2022-08-19T04:43:34;19.30;99.90
13892;DHT22;7016;48.172;8.058;2022-08-19T04:46:10;19.30;99.90
13892;DHT22;7016;48.172;8.058;2022-08-19T04:48:37;19.30;99.90
13892;DHT22;7016;48.172;8.058;2022-08-19T04:51:08;19.30;99.90
13892;DHT22;7016;48.172;8.058;2022-08-19T04:53:37;19.30;99.90
13892;DHT22;7016;48.172;8.058;2022-08-19T04:56:21;19.30;99.90
13892;DHT22;7016;48.172;8.058;2022-08-19T04:58:48;19.30;99.90
13892;DHT22;7016;48.172;8.058;2022-08-19T05:01:26;19.20;99.90
13892;DHT22;7016;48.172;8.058;2022-08-19T05:03:52;19.20;99.90
13892;DHT22;7016;48.172;8.058;2022-08-19T05:06:20;19.10;99.90
13892;DHT22;7016;48.172;8.058;2022-08-19T05:08:47;19.10;99.90
13892;DHT22;7016;48.172;8.058;2022-08-19T05:11:19;19.00;99.90
13892;DHT22;7016;48.172;8.058;2022-08-19T05:13:46;19.00;99.90
13892;DHT22;7016;48.172;8.058;2022-08-19T05:16:15;19.00;99.90
13892;DHT22;7016;48.172;8.058;2022-08-19T05:18:42;19.10;99.90
13892;DHT22;7016;48.172;8.058;2022-08-19T05:21:27;19.10;99.90
13892;DHT22;7016;48.172;8.058;2022-08-19T05:24:12;19.10;99.90
13892;DHT22;7016;48.172;8.058;2022-08-19T05:26:41;19.20;99.90
13892;DHT22;7016;48.172;8.058;2022-08-19T05:29:08;19.10;99.90
13892;DHT22;7016;48.172;8.058;2022-08-19T05:31:35;18.90;99.90
13892;DHT22;7016;48.172;8.058;2022-08-19T05:34:01;18.90;99.90
13892;DHT22;7016;48.172;8.058;2022-08-19T05:36:32;19.00;99.90
13892;DHT22;7016;48.172;8.058;2022-08-19T05:39:00;19.00;99.90
13892;DHT22;7016;48.172;8.058;2022-08-19T05:41:26;19.00;99.90
13892;DHT22;7016;48.172;8.058;2022-08-19T05:44:02;19.00;99.90
13892;DHT22;7016;48.172;8.058;2022-08-19T05:46:31;19.10;99.90
13892;DHT22;7016;48.172;8.058;2022-08-19T05:48:57;19.10;99.90
13892;DHT22;7016;48.172;8.058;2022-08-19T05:51:24;19.20;99.90
13892;DHT22;7016;48.172;8.058;2022-08-19T05:53:50;19.20;99.90
13892;DHT22;7016;48.172;8.058;2022-08-19T05:56:17;19.20;99.90
13892;DHT22;7016;48.172;8.058;2022-08-19T05:58:44;19.20;99.90
13892;DHT22;7016;48.172;8.058;2022-08-19T06:01:15;20.40;99.90
13892;DHT22;7016;48.172;8.058;2022-08-19T06:03:42;19.10;99.90
13892;DHT22;7016;48.172;8.058;2022-08-19T06:06:10;19.10;99.90
13892;DHT22;7016;48.172;8.058;2022-08-19T06:08:37;19.20;99.90
13892;DHT22;7016;48.172;8.058;2022-08-19T06:13:52;19.20;99.90
13892;DHT22;7016;48.172;8.058;2022-08-19T06:16:20;19.20;99.90
13892;DHT22;7016;48.172;8.058;2022-08-19T06:18:50;19.30;99.90
13892;DHT22;7016;48.172;8.058;2022-08-19T06:21:21;19.40;99.90
13892;DHT22;7016;48.172;8.058;2022-08-19T06:23:47;19.40;99.90
13892;DHT22;7016;48.172;8.058;2022-08-19T06:26:14;19.40;99.90
13892;DHT22;7016;48.172;8.058;2022-08-19T06:28:41;19.50;99.90
13892;DHT22;7016;48.172;8.058;2022-08-19T06:31:10;19.60;99.90
13892;DHT22;7016;48.172;8.058;2022-08-19T06:33:36;19.60;99.90
13892;DHT22;7016;48.172;8.058;2022-08-19T06:36:03;19.60;99.90
13892;DHT22;7016;48.172;8.058;2022-08-19T06:38:28;19.60;99.90
13892;DHT22;7016;48.172;8.058;2022-08-19T06:41:02;19.70;99.90
13892;DHT22;7016;48.172;8.058;2022-08-19T06:43:28;19.70;99.90
13892;DHT22;7016;48.172;8.058;2022-08-19T06:45:54;19.70;99.90
13892;DHT22;7016;48.172;8.058;2022-08-19T06:48:20;19.70;99.90
13892;DHT22;7016;48.172;8.058;2022-08-19T06:50:45;19.70;99.90
13892;DHT22;7016;48.172;8.058;2022-08-19T06:53:12;19.70;99.90
13892;DHT22;7016;48.172;8.058;2022-08-19T06:55:38;19.60;99.90
13892;DHT22;7016;48.172;8.058;2022-08-19T06:58:05;19.60;99.90
13892;DHT22;7016;48.172;8.058;2022-08-19T07:00:32;19.70;99.90
13892;DHT22;7016;48.172;8.058;2022-08-19T07:02:58;19.80;99.90
13892;DHT22;7016;48.172;8.058;2022-08-19T07:05:24;19.80;99.90
13892;DHT22;7016;48.172;8.058;2022-08-19T07:07:49;19.80;99.90
13892;DHT22;7016;48.172;8.058;2022-08-19T07:10:15;19.80;99.90
13892;DHT22;7016;48.172;8.058;2022-08-19T07:12:41;19.90;99.90
13892;DHT22;7016;48.172;8.058;2022-08-19T07:15:07;19.80;99.90
13892;DHT22;7016;48.172;8.058;2022-08-19T07:17:35;19.80;99.90
13892;DHT22;7016;48.172;8.058;2022-08-19T07:20:05;19.70;99.90
13892;DHT22;7016;48.172;8.058;2022-08-19T07:22:33;19.70;99.90
13892;DHT22;7016;48.172;8.058;2022-08-19T07:25:00;19.70;99.90
13892;DHT22;7016;48.172;8.058;2022-08-19T07:27:25;19.70;99.90
13892;DHT22;7016;48.172;8.058;2022-08-19T07:29:52;19.70;99.90
13892;DHT22;7016;48.172;8.058;2022-08-19T07:32:18;19.70;99.90
13892;DHT22;7016;48.172;8.058;2022-08-19T07:34:44;19.70;99.90
13892;DHT22;7016;48.172;8.058;2022-08-19T07:37:14;19.70;99.90
13892;DHT22;7016;48.172;8.058;2022-08-19T07:39:40;19.70;99.90
13892;DHT22;7016;48.172;8.058;2022-08-19T07:42:08;19.80;99.90
13892;DHT22;7016;48.172;8.058;2022-08-19T07:44:34;19.80;99.90
13892;DHT22;7016;48.172;8.058;2022-08-19T07:47:03;19.70;99.90
13892;DHT22;7016;48.172;8.058;2022-08-19T07:49:30;19.70;99.90
13892;DHT22;7016;48.172;8.058;2022-08-19T07:52:01;19.80;99.90
13892;DHT22;7016;48.172;8.058;2022-08-19T07:54:30;19.80;99.90
13892;DHT22;7016;48.172;8.058;2022-08-19T07:56:56;19.80;99.90
13892;DHT22;7016;48.172;8.058;2022-08-19T07:59:23;19.80;99.90
13892;DHT22;7016;48.172;8.058;2022-08-19T08:01:50;19.90;99.90
13892;DHT22;7016;48.172;8.058;2022-08-19T08:04:17;19.90;99.90
13892;DHT22;7016;48.172;8.058;2022-08-19T08:07:01;19.80;99.90
13892;DHT22;7016;48.172;8.058;2022-08-19T08:09:46;19.80;99.90
13892;DHT22;7016;48.172;8.058;2022-08-19T08:12:15;19.80;99.90
13892;DHT22;7016;48.172;8.058;2022-08-19T08:14:45;19.80;99.90
13892;DHT22;7016;48.172;8.058;2022-08-19T08:17:12;19.90;99.90
13892;DHT22;7016;48.172;8.058;2022-08-19T08:19:39;19.80;99.90
13892;DHT22;7016;48.172;8.058;2022-08-19T08:22:07;19.80;99.90
13892;DHT22;7016;48.172;8.058;2022-08-19T08:24:33;19.80;99.90
13892;DHT22;7016;48.172;8.058;2022-08-19T08:27:00;19.90;99.90
13892;DHT22;7016;48.172;8.058;2022-08-19T08:29:30;19.80;99.90
13892;DHT22;7016;48.172;8.058;2022-08-19T08:31:56;19.90;99.90
13892;DHT22;7016;48.172;8.058;2022-08-19T08:34:23;19.90;99.90
13892;DHT22;7016;48.172;8.058;2022-08-19T08:36:49;19.80;99.90
13892;DHT22;7016;48.172;8.058;2022-08-19T08:39:18;19.90;99.90
13892;DHT22;7016;48.172;8.058;2022-08-19T08:44:56;19.90;99.90
13892;DHT22;7016;48.172;8.058;2022-08-19T08:47:20;19.90;99.90
13892;DHT22;7016;48.172;8.058;2022-08-19T08:49:49;19.90;99.90
13892;DHT22;7016;48.172;8.058;2022-08-19T08:52:43;20.00;99.90
13892;DHT22;7016;48.172;8.058;2022-08-19T08:55:18;20.00;99.90
13892;DHT22;7016;48.172;8.058;2022-08-19T09:00:31;20.00;99.90
13892;DHT22;7016;48.172;8.058;2022-08-19T09:03:00;20.00;99.90
13892;DHT22;7016;48.172;8.058;2022-08-19T09:05:44;19.90;99.90
13892;DHT22;7016;48.172;8.058;2022-08-19T09:10:59;19.90;99.90
13892;DHT22;7016;48.172;8.058;2022-08-19T09:16:21;20.00;99.90
13892;DHT22;7016;48.172;8.058;2022-08-19T09:18:53;20.00;99.90
13892;DHT22;7016;48.172;8.058;2022-08-19T09:21:23;20.20;99.90
13892;DHT22;7016;48.172;8.058;2022-08-19T09:23:50;20.10;99.90
13892;DHT22;7016;48.172;8.058;2022-08-19T09:26:19;20.10;99.90
13892;DHT22;7016;48.172;8.058;2022-08-19T09:28:48;20.10;99.90
13892;DHT22;7016;48.172;8.058;2022-08-19T09:31:19;20.00;99.90
13892;DHT22;7016;48.172;8.058;2022-08-19T09:33:45;20.00;99.90
13892;DHT22;7016;48.172;8.058;2022-08-19T09:36:13;20.00;99.90
13892;DHT22;7016;48.172;8.058;2022-08-19T09:38:40;20.10;99.90
13892;DHT22;7016;48.172;8.058;2022-08-19T09:41:15;20.20;99.90
13892;DHT22;7016;48.172;8.058;2022-08-19T09:43:43;20.20;99.90
13892;DHT22;7016;48.172;8.058;2022-08-19T09:46:09;20.30;99.90
13892;DHT22;7016;48.172;8.058;2022-08-19T09:48:36;20.30;99.90
13892;DHT22;7016;48.172;8.058;2022-08-19T09:51:07;20.40;99.90
13892;DHT22;7016;48.172;8.058;2022-08-19T09:53:34;20.40;99.90
13892;DHT22;7016;48.172;8.058;2022-08-19T09:56:01;20.40;99.90
13892;DHT22;7016;48.172;8.058;2022-08-19T09:58:27;20.40;99.90
13892;DHT22;7016;48.172;8.058;2022-08-19T10:00:56;20.40;99.90
13892;DHT22;7016;48.172;8.058;2022-08-19T10:03:22;20.40;99.90
13892;DHT22;7016;48.172;8.058;2022-08-19T10:05:48;20.40;99.90
13892;DHT22;7016;48.172;8.058;2022-08-19T10:08:16;20.40;99.90
13892;DHT22;7016;48.172;8.058;2022-08-19T10:10:43;20.40;99.90
13892;DHT22;7016;48.172;8.058;2022-08-19T10:13:09;20.30;99.90
13892;DHT22;7016;48.172;8.058;2022-08-19T10:15:35;20.30;99.90
13892;DHT22;7016;48.172;8.058;2022-08-19T10:18:01;20.30;99.90
13892;DHT22;7016;48.172;8.058;2022-08-19T10:20:26;20.30;99.90
13892;DHT22;7016;48.172;8.058;2022-08-19T10:22:52;20.40;99.90
13892;DHT22;7016;48.172;8.058;2022-08-19T10:25:18;20.40;99.90
13892;DHT22;7016;48.172;8.058;2022-08-19T10:27:44;20.50;99.90
13892;DHT22;7016;48.172;8.058;2022-08-19T10:30:10;20.50;99.90
13892;DHT22;7016;48.172;8.058;2022-08-19T10:32:36;20.50;99.90
13892;DHT22;7016;48.172;8.058;2022-08-19T10:35:03;20.50;99.90
13892;DHT22;7016;48.172;8.058;2022-08-19T10:37:31;20.60;99.90
13892;DHT22;7016;48.172;8.058;2022-08-19T10:39:58;20.70;99.90
13892;DHT22;7016;48.172;8.058;2022-08-19T10:42:24;20.60;99.90
13892;DHT22;7016;48.172;8.058;2022-08-19T10:44:50;20.70;99.90
13892;DHT22;7016;48.172;8.058;2022-08-19T10:47:16;20.70;99.90
13892;DHT22;7016;48.172;8.058;2022-08-19T10:49:41;20.70;99.90
13892;DHT22;7016;48.172;8.058;2022-08-19T10:52:26;20.80;99.90
13892;DHT22;7016;48.172;8.058;2022-08-19T10:55:02;20.80;99.90
13892;DHT22;7016;48.172;8.058;2022-08-19T10:57:46;20.90;99.90
13892;DHT22;7016;48.172;8.058;2022-08-19T11:00:12;20.90;99.90
13892;DHT22;7016;48.172;8.058;2022-08-19T11:02:38;20.90;99.90
13892;DHT22;7016;48.172;8.058;2022-08-19T11:05:05;20.90;99.90
13892;DHT22;7016;48.172;8.058;2022-08-19T11:07:32;21.00;99.90
13892;DHT22;7016;48.172;8.058;2022-08-19T11:09:58;21.10;99.90
13892;DHT22;7016;48.172;8.058;2022-08-19T11:12:24;21.10;99.90
13892;DHT22;7016;48.172;8.058;2022-08-19T11:14:50;21.10;99.90
13892;DHT22;7016;48.172;8.058;2022-08-19T11:17:16;21.20;99.90
13892;DHT22;7016;48.172;8.058;2022-08-19T11:19:41;21.30;99.90
13892;DHT22;7016;48.172;8.058;2022-08-19T11:22:09;21.30;99.90
13892;DHT22;7016;48.172;8.058;2022-08-19T11:24:35;21.40;99.90
13892;DHT22;7016;48.172;8.058;2022-08-19T11:27:06;21.40;99.90
13892;DHT22;7016;48.172;8.058;2022-08-19T11:29:32;21.50;99.90
13892;DHT22;7016;48.172;8.058;2022-08-19T11:31:59;21.40;99.90
13892;DHT22;7016;48.172;8.058;2022-08-19T11:34:27;21.40;99.90
13892;DHT22;7016;48.172;8.058;2022-08-19T11:36:54;21.50;99.90
13892;DHT22;7016;48.172;8.058;2022-08-19T11:39:24;21.50;99.90
13892;DHT22;7016;48.172;8.058;2022-08-19T11:41:50;21.50;99.90
13892;DHT22;7016;48.172;8.058;2022-08-19T11:44:16;21.50;99.90
13892;DHT22;7016;48.172;8.058;2022-08-19T11:46:43;21.40;99.90
13892;DHT22;7016;48.172;8.058;2022-08-19T11:49:14;21.50;99.90
13892;DHT22;7016;48.172;8.058;2022-08-19T11:51:40;21.60;99.90
13892;DHT22;7016;48.172;8.058;2022-08-19T11:54:08;21.60;99.90
13892;DHT22;7016;48.172;8.058;2022-08-19T11:56:37;21.60;99.90
13892;DHT22;7016;48.172;8.058;2022-08-19T11:59:03;21.60;99.90
13892;DHT22;7016;48.172;8.058;2022-08-19T12:01:29;21.50;99.90
13892;DHT22;7016;48.172;8.058;2022-08-19T12:03:56;21.50;99.90
13892;DHT22;7016;48.172;8.058;2022-08-19T12:06:25;21.60;99.90
13892;DHT22;7016;48.172;8.058;2022-08-19T12:08:54;21.80;99.90
13892;DHT22;7016;48.172;8.058;2022-08-19T12:11:20;22.10;99.90
13892;DHT22;7016;48.172;8.058;2022-08-19T12:13:46;22.10;99.90
13892;DHT22;7016;48.172;8.058;2022-08-19T12:16:23;22.20;99.90
13892;DHT22;7016;48.172;8.058;2022-08-19T12:18:49;22.10;99.90
13892;DHT22;7016;48.172;8.058;2022-08-19T12:21:20;22.20;99.90
13892;DHT22;7016;48.172;8.058;2022-08-19T12:23:48;22.20;99.90
13892;DHT22;7016;48.172;8.058;2022-08-19T12:26:15;22.30;98.90
13892;DHT22;7016;48.172;8.058;2022-08-19T12:28:42;22.40;99.70
13892;DHT22;7016;48.172;8.058;2022-08-19T12:31:08;22.60;99.10
13892;DHT22;7016;48.172;8.058;2022-08-19T12:33:37;22.60;99.40
13892;DHT22;7016;48.172;8.058;2022-08-19T12:36:05;22.60;99.30
13892;DHT22;7016;48.172;8.058;2022-08-19T12:38:32;22.60;98.40
13892;DHT22;7016;48.172;8.058;2022-08-19T12:40:58;22.60;99.20
13892;DHT22;7016;48.172;8.058;2022-08-19T12:43:24;22.60;98.70
13892;DHT22;7016;48.172;8.058;2022-08-19T12:45:50;22.70;98.40
13892;DHT22;7016;48.172;8.058;2022-08-19T12:48:16;22.80;98.80
13892;DHT22;7016;48.172;8.058;2022-08-19T12:50:44;22.90;99.70
13892;DHT22;7016;48.172;8.058;2022-08-19T12:53:11;22.70;97.10
13892;DHT22;7016;48.172;8.058;2022-08-19T12:55:37;22.80;98.50
13892;DHT22;7016;48.172;8.058;2022-08-19T12:58:03;22.90;98.60
13892;DHT22;7016;48.172;8.058;2022-08-19T13:00:29;23.00;97.50
13892;DHT22;7016;48.172;8.058;2022-08-19T13:02:58;23.90;97.10
13892;DHT22;7016;48.172;8.058;2022-08-19T13:05:27;23.10;96.50
13892;DHT22;7016;48.172;8.058;2022-08-19T13:07:56;23.10;97.20
13892;DHT22;7016;48.172;8.058;2022-08-19T13:10:24;23.30;97.20
13892;DHT22;7016;48.172;8.058;2022-08-19T13:12:51;23.30;96.40
13892;DHT22;7016;48.172;8.058;2022-08-19T13:15:18;23.40;95.60
13892;DHT22;7016;48.172;8.058;2022-08-19T13:17:47;23.40;94.60
13892;DHT22;7016;48.172;8.058;2022-08-19T13:20:16;23.30;95.50
13892;DHT22;7016;48.172;8.058;2022-08-19T13:22:42;23.30;95.60
13892;DHT22;7016;48.172;8.058;2022-08-19T13:25:10;23.40;96.30
13892;DHT22;7016;48.172;8.058;2022-08-19T13:27:37;23.40;95.00
13892;DHT22;7016;48.172;8.058;2022-08-19T13:30:04;23.30;95.10
13892;DHT22;7016;48.172;8.058;2022-08-19T13:32:49;23.40;95.40
13892;DHT22;7016;48.172;8.058;2022-08-19T13:35:34;23.40;94.90
13892;DHT22;7016;48.172;8.058;2022-08-19T13:37:59;23.40;96.60
13892;DHT22;7016;48.172;8.058;2022-08-19T13:40:32;23.50;95.50
13892;DHT22;7016;48.172;8.058;2022-08-19T13:42:59;23.50;95.80
13892;DHT22;7016;48.172;8.058;2022-08-19T13:45:26;23.60;95.30
13892;DHT22;7016;48.172;8.058;2022-08-19T13:47:54;23.60;94.20
13892;DHT22;7016;48.172;8.058;2022-08-19T13:50:23;23.50;95.30
13892;DHT22;7016;48.172;8.058;2022-08-19T13:52:52;23.80;94.90
13892;DHT22;7016;48.172;8.058;2022-08-19T13:55:18;23.80;94.30
13892;DHT22;7016;48.172;8.058;2022-08-19T13:57:44;23.80;94.30
13892;DHT22;7016;48.172;8.058;2022-08-19T14:00:14;23.80;94.10
13892;DHT22;7016;48.172;8.058;2022-08-19T14:02:40;23.80;93.90
13892;DHT22;7016;48.172;8.058;2022-08-19T14:05:09;23.80;95.30
13892;DHT22;7016;48.172;8.058;2022-08-19T14:07:35;23.80;94.90
13892;DHT22;7016;48.172;8.058;2022-08-19T14:10:04;23.80;95.20
13892;DHT22;7016;48.172;8.058;2022-08-19T14:12:30;23.70;94.30
13892;DHT22;7016;48.172;8.058;2022-08-19T14:14:58;23.70;95.20
13892;DHT22;7016;48.172;8.058;2022-08-19T14:17:24;23.80;96.40
13892;DHT22;7016;48.172;8.058;2022-08-19T14:19:57;23.80;95.40
13892;DHT22;7016;48.172;8.058;2022-08-19T14:22:23;23.80;95.20
13892;DHT22;7016;48.172;8.058;2022-08-19T14:24:48;23.80;95.40
13892;DHT22;7016;48.172;8.058;2022-08-19T14:27:15;23.80;95.50
13892;DHT22;7016;48.172;8.058;2022-08-19T14:29:41;23.80;96.00
13892;DHT22;7016;48.172;8.058;2022-08-19T14:32:07;23.80;95.70
13892;DHT22;7016;48.172;8.058;2022-08-19T14:34:33;23.70;95.90
13892;DHT22;7016;48.172;8.058;2022-08-19T14:36:59;23.80;96.20
13892;DHT22;7016;48.172;8.058;2022-08-19T14:39:25;23.80;95.40
13892;DHT22;7016;48.172;8.058;2022-08-19T14:41:51;23.80;94.90
13892;DHT22;7016;48.172;8.058;2022-08-19T14:44:16;23.80;95.50
13892;DHT22;7016;48.172;8.058;2022-08-19T14:46:42;23.80;95.80
13892;DHT22;7016;48.172;8.058;2022-08-19T14:49:10;23.80;96.30
13892;DHT22;7016;48.172;8.058;2022-08-19T14:51:36;23.70;95.70
13892;DHT22;7016;48.172;8.058;2022-08-19T14:54:02;23.70;96.20
13892;DHT22;7016;48.172;8.058;2022-08-19T14:56:29;23.70;96.40
13892;DHT22;7016;48.172;8.058;2022-08-19T14:58:55;23.70;96.40
13892;DHT22;7016;48.172;8.058;2022-08-19T15:01:24;23.70;96.60
13892;DHT22;7016;48.172;8.058;2022-08-19T15:03:50;23.70;96.80
13892;DHT22;7016;48.172;8.058;2022-08-19T15:06:21;23.70;96.20
13892;DHT22;7016;48.172;8.058;2022-08-19T15:08:48;23.70;96.70
13892;DHT22;7016;48.172;8.058;2022-08-19T15:11:15;23.50;95.20
13892;DHT22;7016;48.172;8.058;2022-08-19T15:13:43;23.50;95.70
13892;DHT22;7016;48.172;8.058;2022-08-19T15:16:10;23.50;95.70
13892;DHT22;7016;48.172;8.058;2022-08-19T15:18:36;23.40;96.20
13892;DHT22;7016;48.172;8.058;2022-08-19T15:21:03;23.30;96.30
13892;DHT22;7016;48.172;8.058;2022-08-19T15:23:29;23.30;96.60
13892;DHT22;7016;48.172;8.058;2022-08-19T15:25:55;23.30;96.60
13892;DHT22;7016;48.172;8.058;2022-08-19T15:28:25;23.20;96.20
13892;DHT22;7016;48.172;8.058;2022-08-19T15:30:52;23.20;96.30
13892;DHT22;7016;48.172;8.058;2022-08-19T15:33:18;23.20;96.30
13892;DHT22;7016;48.172;8.058;2022-08-19T15:35:46;23.30;97.20
13892;DHT22;7016;48.172;8.058;2022-08-19T15:38:13;23.30;97.00
13892;DHT22;7016;48.172;8.058;2022-08-19T15:40:40;23.30;97.10
13892;DHT22;7016;48.172;8.058;2022-08-19T15:43:06;23.30;96.50
13892;DHT22;7016;48.172;8.058;2022-08-19T15:45:32;23.20;97.20
13892;DHT22;7016;48.172;8.058;2022-08-19T15:48:00;23.10;96.70
13892;DHT22;7016;48.172;8.058;2022-08-19T15:50:26;23.10;96.60
13892;DHT22;7016;48.172;8.058;2022-08-19T15:52:55;23.20;96.90
13892;DHT22;7016;48.172;8.058;2022-08-19T15:55:25;23.30;96.60
13892;DHT22;7016;48.172;8.058;2022-08-19T15:57:52;23.30;96.40
13892;DHT22;7016;48.172;8.058;2022-08-19T16:00:36;23.20;96.60
13892;DHT22;7016;48.172;8.058;2022-08-19T16:03:21;23.10;96.40
13892;DHT22;7016;48.172;8.058;2022-08-19T16:06:05;23.20;96.80
13892;DHT22;7016;48.172;8.058;2022-08-19T16:08:49;23.10;97.00